Dunnville, KY

5:08 PM EDT on June 02, 2015 (GMT -0400)
South Fork Furniture | | Change Station
CLOSE
Current Station
Personal Weather Station
Location: Liberty, KY
Elevation: 810 ft
Nearby Weather Stations

Elev 810 ft 37.19 °N, 84.91 °W | Updated 9 minutes ago

Overcast
Overcast
65.1 °F
Feels Like 65.1 °F
N
2.0
Wind Variable Wind from WNW
Gusts 8.0 mph

Today
High -- | Low -- °F
--% Chance of Precip.
Yesterday
High -- | Low -- °F
Precip. -- in
6:21 AM 8:55 PM
Full, 100% visible
Pressure 30.06 in
Visibility 10.0 miles
Clouds Overcast 1800 ft
Dew Point 58 °F
Humidity 79%
Rainfall 0.00 in
Snow Depth Not available.
UV 2 out of 12
Pollen 6.80 out of 12
Air Quality Not available.
Flu Activity No Activity
METAR KSME 022055Z AUTO 04005KT 10SM OVC018 17/13 A3006 RMK AO2

More Conditions Fewer Conditions

Pressure 30.06 in
Visibility 10.0 miles
Clouds Overcast 1800 ft
Dew Point 58 °F
Humidity 79%
Rainfall 0.00 in
Snow Depth Not available.
UV 2 out of 12
Pollen 6.80 out of 12
Air Quality Not available.
Flu Activity No Activity
METAR KSME 022055Z AUTO 04005KT 10SM OVC018 17/13 A3006 RMK AO2

More Conditions Fewer Conditions

10-Day Weather Forecast

×

Almanac

Astronomy

Jun. 02, 2015 Rise Set
Actual Time
Civil Twilight
Nautical Twilight
Astronomical Twilight
Moon
Length of Visible Light
Length of Day
Tomorrow will be .
, % of the Moon is Illuminated

Today's Extremes

State Highs State Lows

Community

WunderPhotos

Upload Photos

1,826,034 photos uploaded!

WunderBlogs® & News

Nearby

Air Quality

  Air Quality AQ Index Pollutant
Not available.

Snow Depth

Station Depth Elevation

Earthquake Activity

City Distance Mag. Time & Date
Minimum magnitude displayed is 2.5.

Coastal Water Temperatures

Place Temperature

Stations

Nearby Weather Stations

Station Location Temp. Windchill Dew Point Humidity Wind Precip. Elev Updated Type